createdAt,value
2016-09-19T16:46:16.426Z,20.23
2016-09-19T16:46:42.282Z,20.43
2016-09-19T16:47:50.700Z,20.9
2016-09-19T16:48:48.753Z,21.11
2016-09-19T16:49:14.385Z,21.16
2016-09-19T16:49:40.033Z,21.14
2016-09-19T16:50:05.606Z,21.11
2016-09-19T16:50:31.326Z,21.13
2016-09-19T16:50:56.876Z,21.17
2016-09-19T16:51:22.655Z,21.2
2016-09-19T16:51:48.311Z,21.17
2016-09-19T16:52:13.939Z,21.23
2016-09-19T16:52:39.749Z,21.3
2016-09-19T16:53:06.118Z,21.36
2016-09-19T16:53:31.716Z,21.39
2016-09-19T16:53:57.367Z,21.44
2016-09-19T16:54:23.020Z,21.5
2016-09-19T16:54:48.624Z,21.56
2016-09-19T16:55:14.858Z,21.66
2016-09-19T16:55:40.424Z,21.57
2016-09-19T16:56:06.064Z,21.69
2016-09-19T16:56:31.656Z,21.69
2016-09-19T16:56:57.334Z,21.75
2016-09-19T16:57:23.193Z,21.79
2016-09-19T16:57:48.767Z,21.79
2016-09-19T16:58:14.470Z,21.91
2016-09-19T16:58:40.133Z,21.95
2016-09-19T16:59:05.692Z,21.98
2016-09-19T16:59:31.450Z,22.04
2016-09-19T16:59:57.149Z,22.09
2016-09-19T17:00:22.704Z,22.07
2016-09-19T17:00:48.506Z,22.04
2016-09-19T17:01:14.093Z,22.2
2016-09-19T17:01:39.731Z,22.16
2016-09-19T17:02:05.859Z,22.28
2016-09-19T17:02:31.569Z,22.32
2016-09-19T17:02:57.279Z,22.32
2016-09-19T17:03:22.951Z,22.31
2016-09-19T17:03:48.545Z,22.41
2016-09-19T17:04:46.629Z,22.43
2016-09-19T17:05:44.702Z,22.43
2016-09-19T17:06:10.347Z,22.46
2016-09-19T17:06:35.978Z,22.56
2016-09-19T17:07:01.654Z,22.57
2016-09-19T17:07:27.510Z,22.62
2016-09-19T17:07:53.295Z,22.64
2016-09-19T17:08:18.881Z,22.65
2016-09-19T17:08:44.570Z,22.67
2016-09-19T17:09:10.194Z,22.62
2016-09-19T17:09:35.803Z,22.69
2016-09-19T17:10:44.204Z,22.65
2016-09-19T17:11:09.773Z,22.69
2016-09-19T17:11:35.427Z,22.71
2016-09-19T17:12:01.052Z,22.68
2016-09-19T17:12:26.682Z,22.72
2016-09-19T17:12:52.300Z,22.8
2016-09-19T17:13:18.124Z,22.8
2016-09-19T17:13:44.005Z,22.77
2016-09-19T17:14:09.685Z,22.8
2016-09-19T17:14:35.358Z,22.78
2016-09-19T17:15:00.908Z,22.77
2016-09-19T17:15:26.478Z,22.74
2016-09-19T17:15:52.145Z,22.8
2016-09-19T17:16:17.966Z,22.8
2016-09-19T17:16:43.731Z,22.78
2016-09-19T17:17:09.357Z,22.8
2016-09-19T17:17:34.919Z,22.78
2016-09-19T17:18:00.665Z,22.84
2016-09-19T17:18:26.231Z,22.75
2016-09-19T17:18:51.900Z,22.87
2016-09-19T17:19:17.648Z,22.89
2016-09-19T17:19:44.117Z,22.89
2016-09-19T17:20:09.741Z,22.86
2016-09-19T17:20:35.332Z,22.89
2016-09-19T17:21:00.977Z,22.84
2016-09-19T17:21:26.648Z,22.92
2016-09-19T17:21:52.242Z,22.93
2016-09-19T17:22:17.895Z,22.94
2016-09-19T17:22:43.638Z,22.9
2016-09-19T17:23:09.221Z,22.9
2016-09-19T17:23:34.776Z,22.94
2016-09-19T17:24:00.334Z,22.92
2016-09-19T17:24:25.999Z,22.9
2016-09-19T17:24:51.548Z,22.86
2016-09-19T17:25:17.149Z,22.96
2016-09-19T17:25:42.774Z,22.92
2016-09-19T17:26:08.782Z,22.94
2016-09-19T17:26:34.447Z,22.94
2016-09-19T17:27:00.087Z,22.92
2016-09-19T17:27:25.730Z,22.9
2016-09-19T17:27:51.280Z,22.9
2016-09-19T17:28:17.065Z,22.89
2016-09-19T17:28:42.723Z,22.9
2016-09-19T17:29:09.500Z,22.89
2016-09-19T17:29:35.102Z,22.97
2016-09-19T17:30:43.830Z,22.99
2016-09-19T17:31:09.460Z,22.99
2016-09-19T17:31:35.065Z,22.99
2016-09-19T17:32:00.709Z,22.97
2016-09-19T17:32:26.292Z,22.89
2016-09-19T17:32:51.976Z,22.94
2016-09-19T17:33:17.683Z,22.92
2016-09-19T17:33:43.279Z,23.02
2016-09-19T17:34:08.928Z,23.02
2016-09-19T17:34:34.498Z,22.99
2016-09-19T17:35:42.840Z,23.01
2016-09-19T17:36:08.393Z,22.99
2016-09-19T17:36:34.014Z,22.93
2016-09-19T17:36:59.555Z,22.94
2016-09-19T17:37:25.150Z,23.07
2016-09-19T17:37:50.809Z,22.96
2016-09-19T17:38:16.387Z,22.97
2016-09-19T17:38:42.913Z,22.99
2016-09-19T17:39:08.625Z,22.99
2016-09-19T17:39:34.314Z,22.92
2016-09-19T17:40:00.018Z,22.94
2016-09-19T17:40:25.600Z,23.09
2016-09-19T17:40:51.175Z,23.01
2016-09-19T17:41:16.908Z,23.01
2016-09-19T17:41:42.463Z,23.04
2016-09-19T17:42:08.089Z,23.09
2016-09-19T17:42:33.653Z,22.97
2016-09-19T17:42:59.368Z,23.07
2016-09-19T17:43:25.058Z,22.99
2016-09-19T17:43:50.618Z,23.02
2016-09-19T17:44:16.298Z,22.99
2016-09-19T17:44:41.943Z,23.01
2016-09-19T17:45:07.500Z,22.99
2016-09-19T17:45:33.136Z,23.05
2016-09-19T17:45:58.720Z,23.05
2016-09-19T17:46:24.319Z,23.01
2016-09-19T17:46:49.967Z,22.96
2016-09-19T17:47:20.502Z,23.02
2016-09-19T17:47:46.220Z,22.99
2016-09-19T17:48:11.790Z,23.08
2016-09-19T17:48:37.457Z,23.04
2016-09-19T17:49:03.093Z,23.02
2016-09-19T17:49:28.735Z,23.02
2016-09-19T17:49:54.323Z,23.07
2016-09-19T17:50:19.939Z,23.01
2016-09-19T17:50:45.689Z,23.05
2016-09-19T17:51:11.394Z,23.04
2016-09-19T17:51:36.962Z,23.05
2016-09-19T17:52:02.553Z,23.04
2016-09-19T17:52:28.235Z,23.05
2016-09-19T17:52:53.834Z,23.01
2016-09-19T17:53:19.418Z,23.05
2016-09-19T17:53:45.015Z,23.05
2016-09-19T17:54:10.657Z,23.05
2016-09-19T17:54:36.222Z,23.07
2016-09-19T17:55:01.795Z,23.04
2016-09-19T17:55:27.397Z,23.05
2016-09-19T17:55:53.142Z,23.04
2016-09-19T17:56:18.730Z,23.05
2016-09-19T17:56:44.330Z,23.01
2016-09-19T17:57:09.891Z,23.04
2016-09-19T17:57:35.521Z,23.08
2016-09-19T17:58:01.108Z,23.09
2016-09-19T17:58:26.693Z,23.05
2016-09-19T17:58:52.293Z,23.02
2016-09-19T17:59:17.923Z,23.05
2016-09-19T17:59:43.564Z,23.01
2016-09-19T18:00:09.253Z,23.07
2016-09-19T18:00:34.866Z,23.02
2016-09-19T18:01:00.568Z,23.05
2016-09-19T18:01:26.146Z,23.08
2016-09-19T18:02:19.316Z,23.07
2016-09-19T18:02:44.891Z,23.11
2016-09-19T18:03:42.966Z,23.11
2016-09-19T18:04:08.656Z,23.17
2016-09-19T18:04:34.265Z,23.17
2016-09-19T18:05:02.183Z,23.15
2016-09-19T18:05:26.345Z,23.2
2016-09-19T18:05:51.911Z,23.26
2016-09-19T18:06:17.551Z,23.2
2016-09-19T18:06:43.138Z,23.15
2016-09-19T18:07:08.800Z,23.17
2016-09-19T18:07:34.544Z,23.2
2016-09-19T18:08:00.113Z,23.15
2016-09-19T18:08:26.309Z,23.17
2016-09-19T18:08:51.898Z,23.17
2016-09-19T18:09:17.621Z,23.26
2016-09-19T18:09:43.183Z,23.15
2016-09-19T18:10:08.903Z,23.12
2016-09-19T18:10:34.522Z,23.2
2016-09-19T18:11:00.090Z,23.11
2016-09-19T18:11:25.975Z,23.08
2016-09-19T18:11:51.686Z,23.15
2016-09-19T18:12:17.244Z,23.23
2016-09-19T18:12:42.914Z,23.19
2016-09-19T18:13:08.558Z,23.19
2016-09-19T18:13:34.100Z,23.24
2016-09-19T18:13:59.826Z,23.19
2016-09-19T18:14:25.528Z,23.22
2016-09-19T18:14:51.096Z,23.19
2016-09-19T18:15:16.710Z,23.14
2016-09-19T18:15:42.293Z,23.15
2016-09-19T18:16:07.970Z,23.17
2016-09-19T18:16:33.609Z,23.11
2016-09-19T18:16:59.165Z,23.14
2016-09-19T18:17:24.939Z,23.12
2016-09-19T18:17:50.579Z,23.15
2016-09-19T18:18:16.315Z,23.17
2016-09-19T18:18:41.876Z,23.15
2016-09-19T18:19:07.573Z,23.12
2016-09-19T18:19:33.172Z,23.15
2016-09-19T18:19:58.821Z,23.14
2016-09-19T18:20:24.522Z,23.12
2016-09-19T18:20:50.031Z,23.15
2016-09-19T18:21:48.122Z,23.17
2016-09-19T18:22:13.842Z,23.12
2016-09-19T18:23:01.733Z,23.15
2016-09-19T18:23:27.331Z,23.17
2016-09-19T18:23:52.954Z,23.14
2016-09-19T18:24:45.941Z,23.12
2016-09-19T18:25:11.579Z,23.09
2016-09-19T18:25:37.173Z,23.14
2016-09-19T18:26:02.820Z,23.11
2016-09-19T18:26:28.348Z,23.15
2016-09-19T18:26:54.036Z,23.11
2016-09-19T18:27:19.635Z,23.05
2016-09-19T18:27:45.219Z,23.17
2016-09-19T18:28:10.766Z,23.15
2016-09-19T18:28:36.341Z,23.09
2016-09-19T18:29:01.995Z,23.09
2016-09-19T18:29:27.576Z,23.14
2016-09-19T18:29:53.181Z,23.17
2016-09-19T18:30:18.757Z,23.09
2016-09-19T18:30:44.373Z,23.12
2016-09-19T18:31:09.950Z,23.15
2016-09-19T18:31:35.613Z,23.15
2016-09-19T18:32:02.166Z,23.17
2016-09-19T18:32:27.825Z,23.15
2016-09-19T18:32:54.658Z,23.23
2016-09-19T18:34:09.042Z,23.2
2016-09-19T18:34:48.776Z,23.22
2016-09-19T18:35:14.329Z,23.26
2016-09-19T18:35:39.888Z,23.22
2016-09-19T18:36:05.492Z,23.26
2016-09-19T18:36:53.323Z,23.31
2016-09-19T18:37:18.873Z,23.31
2016-09-19T18:37:44.900Z,23.23
2016-09-19T18:38:10.776Z,23.23
2016-09-19T18:38:36.364Z,23.24
2016-09-19T18:39:01.961Z,23.27
2016-09-19T18:39:27.699Z,23.23
2016-09-19T18:40:30.907Z,23.34
2016-09-19T18:40:59.255Z,23.32
2016-09-19T18:41:26.401Z,23.23
2016-09-19T18:41:52.223Z,23.31
2016-09-19T18:42:17.557Z,23.24
2016-09-19T18:42:43.175Z,23.27
2016-09-19T18:43:08.789Z,23.26
2016-09-19T18:43:34.345Z,23.26
2016-09-19T18:43:59.921Z,23.23
2016-09-19T18:44:25.548Z,23.24
2016-09-19T18:44:51.126Z,23.26
2016-09-19T18:45:16.728Z,23.22
2016-09-19T18:45:42.311Z,23.31
2016-09-19T18:46:07.968Z,23.34
2016-09-19T18:46:33.545Z,23.27
2016-09-19T18:46:59.138Z,23.26
2016-09-19T18:48:07.603Z,23.23
2016-09-19T18:48:33.208Z,23.24
2016-09-19T18:48:58.755Z,23.22
2016-09-19T18:49:24.529Z,23.31
2016-09-19T18:49:50.284Z,23.24
2016-09-19T18:50:15.851Z,23.32
2016-09-19T18:50:41.450Z,23.23
2016-09-19T18:51:07.053Z,23.27
2016-09-19T18:51:32.614Z,23.24
2016-09-19T18:51:58.195Z,23.23
2016-09-19T18:52:23.822Z,23.23
2016-09-19T18:52:49.413Z,23.2
2016-09-19T18:53:15.138Z,23.32
2016-09-19T18:53:40.707Z,23.23
2016-09-19T18:54:06.285Z,23.24
2016-09-19T18:54:31.881Z,23.24
2016-09-19T18:54:57.579Z,23.23
2016-09-19T18:55:23.209Z,23.29
2016-09-19T18:55:48.774Z,23.27
2016-09-19T18:56:52.080Z,23.34
2016-09-19T18:57:17.686Z,23.26
2016-09-19T18:57:43.278Z,23.31
2016-09-19T18:58:08.888Z,23.31
2016-09-19T18:58:34.574Z,23.31
2016-09-19T18:59:00.230Z,23.23
2016-09-19T18:59:25.929Z,23.24
2016-09-19T18:59:51.509Z,23.32
2016-09-19T19:00:17.093Z,23.31
2016-09-19T19:00:42.667Z,23.27
2016-09-19T19:01:08.228Z,23.22
2016-09-19T19:01:33.820Z,23.31
2016-09-19T19:01:59.431Z,23.29
2016-09-19T19:02:25.067Z,23.26
2016-09-19T19:02:50.916Z,23.27
2016-09-19T19:03:16.566Z,23.31
2016-09-19T19:03:42.152Z,23.24
2016-09-19T19:04:07.780Z,23.29
2016-09-19T19:04:33.339Z,23.23
2016-09-19T19:04:58.970Z,23.24
2016-09-19T19:05:24.556Z,23.27
2016-09-19T19:05:50.636Z,23.31
2016-09-19T19:06:16.286Z,23.31
2016-09-19T19:06:41.832Z,23.22
2016-09-19T19:07:07.473Z,23.26
2016-09-19T19:07:33.142Z,23.29
2016-09-19T19:07:58.810Z,23.24
2016-09-19T19:08:24.414Z,23.24
2016-09-19T19:08:50.205Z,23.29
2016-09-19T19:09:15.768Z,23.23
2016-09-19T19:09:41.393Z,23.26
2016-09-19T19:10:07.041Z,23.24
2016-09-19T19:10:32.682Z,23.22
2016-09-19T19:10:58.246Z,23.31
2016-09-19T19:11:23.799Z,23.31
2016-09-19T19:11:49.373Z,23.35
2016-09-19T19:12:15.086Z,23.32
2016-09-19T19:12:40.671Z,23.24
2016-09-19T19:13:06.329Z,23.2
2016-09-19T19:13:32.867Z,23.26
2016-09-19T19:13:58.503Z,23.2
2016-09-19T19:14:24.069Z,23.22
2016-09-19T19:14:49.624Z,23.32
2016-09-19T19:15:15.651Z,23.29
2016-09-19T19:15:41.273Z,23.2
2016-09-19T19:16:07.139Z,23.2
2016-09-19T19:16:32.762Z,23.31
2016-09-19T19:16:58.364Z,23.27
2016-09-19T19:17:23.936Z,23.22
2016-09-19T19:17:49.569Z,23.31
2016-09-19T19:18:15.540Z,23.23
2016-09-19T19:18:41.451Z,23.32
2016-09-19T19:19:07.078Z,23.23
2016-09-19T19:19:32.705Z,23.29
2016-09-19T19:19:58.313Z,23.27
2016-09-19T19:20:23.943Z,23.24
2016-09-19T19:20:49.500Z,23.23
2016-09-19T19:21:52.782Z,23.22
2016-09-19T19:22:18.350Z,23.2
2016-09-19T19:22:43.967Z,23.24
2016-09-19T19:23:09.538Z,23.31
2016-09-19T19:23:35.159Z,23.22
2016-09-19T19:24:00.731Z,23.22
2016-09-19T19:24:26.321Z,23.26
2016-09-19T19:24:51.863Z,23.2
2016-09-19T19:25:50.016Z,23.22
2016-09-19T19:26:15.759Z,23.24
2016-09-19T19:26:41.381Z,23.2
2016-09-19T19:27:06.976Z,23.26
2016-09-19T19:27:32.650Z,23.26
2016-09-19T19:27:58.172Z,23.2
2016-09-19T19:28:23.722Z,23.27
2016-09-19T19:28:49.338Z,23.29
2016-09-19T19:29:14.927Z,23.17
2016-09-19T19:29:40.696Z,23.19
2016-09-19T19:30:06.272Z,23.19
2016-09-19T19:30:31.872Z,23.19
2016-09-19T19:30:57.480Z,23.19
2016-09-19T19:31:23.054Z,23.22
2016-09-19T19:31:48.702Z,23.23
2016-09-19T19:32:14.294Z,23.17
2016-09-19T19:32:39.860Z,23.23
2016-09-19T19:33:05.650Z,23.2
2016-09-19T19:33:31.205Z,23.22
2016-09-19T19:33:56.760Z,23.26
2016-09-19T19:34:22.369Z,23.26
2016-09-19T19:34:47.994Z,23.2
2016-09-19T19:35:13.566Z,23.22
2016-09-19T19:35:39.181Z,23.29
2016-09-19T19:36:04.854Z,23.31
2016-09-19T19:36:30.454Z,23.23
2016-09-19T19:36:56.007Z,23.32
2016-09-19T19:37:21.580Z,23.31
2016-09-19T19:37:47.174Z,23.22
2016-09-19T19:38:12.881Z,23.23
2016-09-19T19:38:39.257Z,23.23
2016-09-19T19:39:04.834Z,23.27
2016-09-19T19:39:30.419Z,23.24
2016-09-19T19:39:56.017Z,23.2
2016-09-19T19:40:21.626Z,23.26
2016-09-19T19:40:47.228Z,23.27
2016-09-19T19:41:12.797Z,23.24
2016-09-19T19:41:38.362Z,23.27
2016-09-19T19:42:03.938Z,23.29
2016-09-19T19:42:29.631Z,23.23
2016-09-19T19:42:55.210Z,23.22
2016-09-19T19:43:21.048Z,23.22
2016-09-19T19:43:46.710Z,23.19
2016-09-19T19:44:12.322Z,23.24
2016-09-19T19:44:37.897Z,23.24
2016-09-19T19:45:03.471Z,23.19
2016-09-19T19:45:29.069Z,23.2
2016-09-19T19:45:54.649Z,23.19
2016-09-19T19:46:20.215Z,23.14
2016-09-19T19:46:45.887Z,23.19
2016-09-19T19:47:11.474Z,23.17
2016-09-19T19:47:37.103Z,23.2
2016-09-19T19:48:02.664Z,23.23
2016-09-19T19:48:28.268Z,23.22
2016-09-19T19:48:53.985Z,23.22
2016-09-19T19:49:19.587Z,23.2
2016-09-19T19:49:45.184Z,23.14
2016-09-19T19:50:10.813Z,23.17
2016-09-19T19:50:36.412Z,23.2
2016-09-19T19:51:02.020Z,23.2
2016-09-19T19:51:27.645Z,23.2
2016-09-19T19:51:53.221Z,23.17
2016-09-19T19:52:18.805Z,23.12
2016-09-19T19:52:44.377Z,23.17
2016-09-19T19:53:10.119Z,23.14
2016-09-19T19:53:35.706Z,23.11
2016-09-19T19:54:01.297Z,23.22
2016-09-19T19:54:26.929Z,23.19
2016-09-19T19:54:52.510Z,23.2
2016-09-19T19:55:18.085Z,23.2
2016-09-19T19:55:43.688Z,23.17
2016-09-19T19:56:09.248Z,23.22
2016-09-19T19:56:34.845Z,23.24
2016-09-19T19:57:00.417Z,23.17
2016-09-19T19:57:26.057Z,23.19
2016-09-19T19:57:51.675Z,23.19
2016-09-19T19:58:17.269Z,23.2
2016-09-19T19:58:42.892Z,23.23
2016-09-19T19:59:08.512Z,23.15
2016-09-19T19:59:34.260Z,23.17
2016-09-19T19:59:59.843Z,23.2
2016-09-19T20:00:25.430Z,23.2
2016-09-19T20:00:51.020Z,23.22
2016-09-19T20:01:16.673Z,23.29
2016-09-19T20:01:42.308Z,23.26
2016-09-19T20:02:08.006Z,23.2
2016-09-19T20:02:33.564Z,23.15
2016-09-19T20:02:59.164Z,23.14
2016-09-19T20:03:24.810Z,23.17
2016-09-19T20:03:50.495Z,23.19
2016-09-19T20:04:16.070Z,23.19
2016-09-19T20:04:41.661Z,23.17
2016-09-19T20:05:07.240Z,23.17
2016-09-19T20:05:32.822Z,23.09
2016-09-19T20:05:58.408Z,23.17
2016-09-19T20:06:23.984Z,23.14
2016-09-19T20:06:49.589Z,23.05
2016-09-19T20:07:15.164Z,23.02
2016-09-19T20:07:40.803Z,23.05
2016-09-19T20:08:06.326Z,23.07
2016-09-19T20:08:31.999Z,23.05
2016-09-19T20:08:57.568Z,23.01
2016-09-19T20:09:23.173Z,23.09
2016-09-19T20:09:48.737Z,22.94
2016-09-19T20:10:14.305Z,23.08
2016-09-19T20:10:39.842Z,23.01
2016-09-19T20:11:05.419Z,22.96
2016-09-19T20:11:30.965Z,23.02
2016-09-19T20:11:56.507Z,23.09
2016-09-19T20:12:22.100Z,23.11
2016-09-19T20:12:47.895Z,22.97
2016-09-19T20:13:13.455Z,23.04
2016-09-19T20:13:39.110Z,22.99
2016-09-19T20:14:04.641Z,22.92
2016-09-19T20:14:30.205Z,22.96
2016-09-19T20:14:55.798Z,23.08
2016-09-19T20:15:21.341Z,22.99
2016-09-19T20:15:46.993Z,23.01
2016-09-19T20:16:12.601Z,22.99
2016-09-19T20:16:38.209Z,22.99
2016-09-19T20:17:03.937Z,22.97
2016-09-19T20:17:29.483Z,23.02
2016-09-19T20:17:55.061Z,22.93
2016-09-19T20:18:20.667Z,23.01
2016-09-19T20:18:46.263Z,23.01
2016-09-19T20:19:11.825Z,22.93
2016-09-19T20:19:37.422Z,22.94
2016-09-19T20:20:03.009Z,22.99
2016-09-19T20:20:50.828Z,22.96
2016-09-19T20:21:48.927Z,22.99
2016-09-19T20:22:14.487Z,22.9
2016-09-19T20:22:40.042Z,22.99
2016-09-19T20:23:05.641Z,22.94
2016-09-19T20:23:31.237Z,22.96
2016-09-19T20:23:56.801Z,23.04
2016-09-19T20:24:22.366Z,22.93
2016-09-19T20:24:47.916Z,22.97
2016-09-19T20:25:13.488Z,23.04
2016-09-19T20:25:39.055Z,23.05
2016-09-19T20:26:04.646Z,23.02
2016-09-19T20:26:30.217Z,22.99
2016-09-19T20:26:55.845Z,22.93
2016-09-19T20:27:21.429Z,22.94
2016-09-19T20:27:46.995Z,22.89
2016-09-19T20:28:45.066Z,22.78
2016-09-19T20:29:10.633Z,22.78
2016-09-19T20:29:36.549Z,22.74
2016-09-19T20:30:02.124Z,22.77
2016-09-19T20:30:27.696Z,22.77
2016-09-19T20:30:53.256Z,22.74
2016-09-19T20:31:18.886Z,22.75
2016-09-19T20:31:44.460Z,22.69
2016-09-19T20:32:10.026Z,22.74
2016-09-19T20:32:35.625Z,22.74
2016-09-19T20:33:01.195Z,22.71
2016-09-19T20:33:26.760Z,22.64
2016-09-19T20:33:52.337Z,22.62
2016-09-19T20:34:17.898Z,22.62
2016-09-19T20:34:43.528Z,22.67
2016-09-19T20:35:09.154Z,22.64
2016-09-19T20:35:34.794Z,22.65
2016-09-19T20:36:00.406Z,22.62
2016-09-19T20:36:25.984Z,22.53
2016-09-19T20:36:51.721Z,22.57
2016-09-19T20:37:17.341Z,22.62
2016-09-19T20:37:42.907Z,22.67
2016-09-19T20:38:08.494Z,22.54
2016-09-19T20:38:34.064Z,22.62
2016-09-19T20:38:59.696Z,22.6
2016-09-19T20:39:25.283Z,22.64
2016-09-19T20:39:50.899Z,22.62
2016-09-19T20:40:49.007Z,22.57
2016-09-19T20:41:14.644Z,22.56
2016-09-19T20:41:40.214Z,22.67
2016-09-19T20:42:05.801Z,22.59
2016-09-19T20:42:31.394Z,22.62
2016-09-19T20:42:56.967Z,22.62
2016-09-19T20:43:22.622Z,22.57
2016-09-19T20:43:48.240Z,22.54
2016-09-19T20:44:13.824Z,22.59
2016-09-19T20:44:39.378Z,22.57
2016-09-19T20:45:04.929Z,22.59
2016-09-19T20:45:30.488Z,22.57
2016-09-19T20:45:56.078Z,22.52
2016-09-19T20:46:21.805Z,22.6
2016-09-19T20:46:47.381Z,22.53
2016-09-19T20:47:12.963Z,22.56
2016-09-19T20:47:38.509Z,22.5
2016-09-19T20:48:04.088Z,22.54
2016-09-19T20:48:29.649Z,22.57
2016-09-19T20:48:55.233Z,22.52
2016-09-19T20:49:20.782Z,22.56
2016-09-19T20:49:46.350Z,22.52
2016-09-19T20:50:12.029Z,22.54
2016-09-19T20:50:37.586Z,22.47
2016-09-19T20:51:03.150Z,22.53
2016-09-19T20:51:28.859Z,22.47
2016-09-19T20:52:37.136Z,22.49
2016-09-19T20:53:02.716Z,22.49
2016-09-19T20:53:28.265Z,22.53
2016-09-19T20:53:53.854Z,22.53
2016-09-19T20:54:19.399Z,22.52
2016-09-19T20:54:44.979Z,22.52
2016-09-19T20:55:10.656Z,22.47
2016-09-19T20:55:36.218Z,22.47
2016-09-19T20:56:01.781Z,22.44
2016-09-19T20:56:27.368Z,22.47
2016-09-19T20:56:53.058Z,22.39
2016-09-19T20:57:18.617Z,22.5
2016-09-19T20:57:44.186Z,22.47
2016-09-19T20:58:09.862Z,22.5
2016-09-19T20:58:35.453Z,22.52
2016-09-19T20:59:01.019Z,22.44
2016-09-19T20:59:26.602Z,22.5
2016-09-19T20:59:52.170Z,22.47
2016-09-19T21:00:17.755Z,22.43
2016-09-19T21:00:43.314Z,22.49
2016-09-19T21:01:46.514Z,22.44
2016-09-19T21:02:12.086Z,22.44
2016-09-19T21:02:37.657Z,22.38
2016-09-19T21:03:03.278Z,22.39
2016-09-19T21:03:28.832Z,22.38
2016-09-19T21:03:54.480Z,22.44
2016-09-19T21:04:20.052Z,22.38
2016-09-19T21:04:45.654Z,22.41
2016-09-19T21:05:11.200Z,22.35
2016-09-19T21:05:36.757Z,22.34
2016-09-19T21:06:02.360Z,22.46
2016-09-19T21:06:27.933Z,22.39
2016-09-19T21:06:53.510Z,22.38
2016-09-19T21:07:19.064Z,22.44
2016-09-19T21:07:44.602Z,22.43
2016-09-19T21:08:10.160Z,22.43
2016-09-19T21:08:35.757Z,22.46
2016-09-19T21:09:01.333Z,22.46
2016-09-19T21:09:26.956Z,22.47
2016-09-19T21:09:52.534Z,22.41
2016-09-19T21:10:18.108Z,22.39
2016-09-19T21:10:43.756Z,22.46
2016-09-19T21:11:09.361Z,22.39
2016-09-19T21:11:34.930Z,22.39
2016-09-19T21:12:00.512Z,22.37
2016-09-19T21:12:26.216Z,22.32
2016-09-19T21:12:51.858Z,22.44
2016-09-19T21:13:17.415Z,22.39
2016-09-19T21:13:42.996Z,22.41
2016-09-19T21:14:08.613Z,22.38
2016-09-19T21:14:34.179Z,22.44
2016-09-19T21:14:59.789Z,22.43
2016-09-19T21:15:25.385Z,22.43
2016-09-19T21:15:50.941Z,22.38
2016-09-19T21:16:16.643Z,22.39
2016-09-19T21:16:42.234Z,22.37
2016-09-19T21:17:07.823Z,22.35
2016-09-19T21:17:33.424Z,22.39
2016-09-19T21:17:59.022Z,22.38
2016-09-19T21:18:24.589Z,22.39
2016-09-19T21:18:50.178Z,22.44
2016-09-19T21:19:15.851Z,22.37
2016-09-19T21:19:41.414Z,22.38
2016-09-19T21:20:06.973Z,22.39
2016-09-19T21:20:32.591Z,22.37
2016-09-19T21:20:58.194Z,22.38
2016-09-19T21:21:23.777Z,22.38
2016-09-19T21:21:49.355Z,22.38
2016-09-19T21:22:14.990Z,22.41
2016-09-19T21:22:40.551Z,22.41
2016-09-19T21:23:06.126Z,22.39
2016-09-19T21:23:31.696Z,22.34
2016-09-19T21:23:57.265Z,22.38
2016-09-19T21:24:55.326Z,22.38
2016-09-19T21:25:20.931Z,22.32
2016-09-19T21:25:46.480Z,22.39
2016-09-19T21:26:12.072Z,22.35
2016-09-19T21:26:37.697Z,22.37
2016-09-19T21:27:03.280Z,22.41
2016-09-19T21:27:28.851Z,22.37
2016-09-19T21:27:54.418Z,22.38
2016-09-19T21:28:20.080Z,22.35
2016-09-19T21:28:45.616Z,22.37
2016-09-19T21:29:11.160Z,22.41
2016-09-19T21:29:36.824Z,22.35
2016-09-19T21:30:02.401Z,22.38
2016-09-19T21:30:27.960Z,22.37
2016-09-19T21:30:53.660Z,22.43
2016-09-19T21:31:19.233Z,22.41
2016-09-19T21:31:44.776Z,22.38
2016-09-19T21:32:10.342Z,22.38
2016-09-19T21:32:35.919Z,22.38
2016-09-19T21:33:01.529Z,22.32
2016-09-19T21:33:27.074Z,22.38
2016-09-19T21:33:52.662Z,22.41
2016-09-19T21:34:18.237Z,22.39
2016-09-19T21:34:43.794Z,22.39
2016-09-19T21:35:09.347Z,22.39
2016-09-19T21:35:34.904Z,22.34
2016-09-19T21:36:00.469Z,22.39
2016-09-19T21:36:26.074Z,22.39
2016-09-19T21:36:51.634Z,22.38
2016-09-19T21:37:17.236Z,22.43
2016-09-19T21:37:42.832Z,22.43
2016-09-19T21:38:08.386Z,22.37
2016-09-19T21:38:33.971Z,22.41
2016-09-19T21:38:59.581Z,22.35
2016-09-19T21:39:25.144Z,22.39
2016-09-19T21:39:50.738Z,22.38
2016-09-19T21:40:16.367Z,22.37
2016-09-19T21:40:41.951Z,22.41
2016-09-19T21:41:07.605Z,22.39
2016-09-19T21:41:33.201Z,22.34
2016-09-19T21:41:58.770Z,22.43
2016-09-19T21:42:24.363Z,22.37
2016-09-19T21:42:50.010Z,22.39
2016-09-19T21:43:15.558Z,22.35
2016-09-19T21:43:41.124Z,22.41
2016-09-19T21:44:06.720Z,22.39
2016-09-19T21:44:32.286Z,22.39
2016-09-19T21:44:57.864Z,22.41
2016-09-19T21:45:23.471Z,22.38
2016-09-19T21:45:49.071Z,22.39
2016-09-19T21:46:14.621Z,22.43
2016-09-19T21:46:40.201Z,22.35
2016-09-19T21:47:05.788Z,22.41
2016-09-19T21:47:31.442Z,22.41
2016-09-19T21:47:56.991Z,22.41
2016-09-19T21:48:22.610Z,22.38
2016-09-19T21:48:48.177Z,22.41
2016-09-19T21:49:13.756Z,22.41
2016-09-19T21:49:39.452Z,22.38
2016-09-19T21:50:05.036Z,22.34
2016-09-19T21:50:30.614Z,22.39
2016-09-19T21:50:56.245Z,22.37
2016-09-19T21:51:21.801Z,22.41
2016-09-19T21:51:47.358Z,22.39
2016-09-19T21:52:12.928Z,22.35
2016-09-19T21:52:38.486Z,22.41
2016-09-19T21:53:04.047Z,22.39
2016-09-19T21:53:29.614Z,22.34
2016-09-19T21:53:55.187Z,22.37
2016-09-19T21:54:20.767Z,22.39
2016-09-19T21:54:46.336Z,22.35
2016-09-19T21:55:11.896Z,22.38
2016-09-19T21:55:37.513Z,22.37
2016-09-19T21:56:03.097Z,22.34
2016-09-19T21:56:28.647Z,22.39
2016-09-19T21:56:54.229Z,22.34
2016-09-19T21:57:19.781Z,22.38
2016-09-19T21:57:45.344Z,22.38
2016-09-19T21:58:10.949Z,22.41
2016-09-19T21:58:36.626Z,22.41
2016-09-19T21:59:02.253Z,22.41
2016-09-19T21:59:27.813Z,22.32
2016-09-19T21:59:53.389Z,22.35
2016-09-19T22:00:18.942Z,22.41
2016-09-19T22:00:44.514Z,22.38
2016-09-19T22:01:10.119Z,22.29
2016-09-19T22:01:35.665Z,22.41
2016-09-19T22:02:01.242Z,22.37
2016-09-19T22:02:26.806Z,22.38
2016-09-19T22:02:52.527Z,22.29
2016-09-19T22:03:18.089Z,22.37
2016-09-19T22:03:43.656Z,22.31
2016-09-19T22:04:09.212Z,22.39
2016-09-19T22:04:34.775Z,22.38
2016-09-19T22:05:00.410Z,22.35
2016-09-19T22:05:25.989Z,22.38
2016-09-19T22:05:51.545Z,22.35
2016-09-19T22:06:17.101Z,22.39
2016-09-19T22:06:42.645Z,22.37
2016-09-19T22:07:08.209Z,22.32
2016-09-19T22:07:33.925Z,22.37
2016-09-19T22:07:59.490Z,22.38
2016-09-19T22:08:25.075Z,22.38
2016-09-19T22:08:50.682Z,22.32
2016-09-19T22:09:16.258Z,22.34
2016-09-19T22:09:41.813Z,22.38
2016-09-19T22:10:07.396Z,22.29
2016-09-19T22:10:33.079Z,22.32
2016-09-19T22:10:58.647Z,22.39
2016-09-19T22:11:24.211Z,22.37
2016-09-19T22:11:49.754Z,22.39
2016-09-19T22:12:15.363Z,22.34
2016-09-19T22:12:40.943Z,22.27
2016-09-19T22:13:06.547Z,22.41
2016-09-19T22:13:32.125Z,22.32
2016-09-19T22:13:57.759Z,22.39
2016-09-19T22:14:23.344Z,22.39
2016-09-19T22:14:48.931Z,22.35
2016-09-19T22:15:14.476Z,22.39
2016-09-19T22:15:40.068Z,22.43
2016-09-19T22:16:05.714Z,22.41
2016-09-19T22:16:31.307Z,22.37
2016-09-19T22:16:56.860Z,22.35
2016-09-19T22:17:22.515Z,22.28
2016-09-19T22:17:48.091Z,22.29
2016-09-19T22:18:13.645Z,22.28
2016-09-19T22:18:39.222Z,22.34
2016-09-19T22:19:04.781Z,22.37
2016-09-19T22:19:30.374Z,22.32
2016-09-19T22:19:55.948Z,22.35
2016-09-19T22:20:21.492Z,22.31
2016-09-19T22:20:47.052Z,22.43
2016-09-19T22:21:13.382Z,22.29
2016-09-19T22:21:38.945Z,22.34
2016-09-19T22:22:04.511Z,22.37
2016-09-19T22:22:30.085Z,22.32
2016-09-19T22:22:55.643Z,22.38
2016-09-19T22:23:21.203Z,22.29
2016-09-19T22:23:46.780Z,22.29
2016-09-19T22:24:12.340Z,22.37
2016-09-19T22:24:37.962Z,22.39
2016-09-19T22:25:03.535Z,22.37
2016-09-19T22:25:29.084Z,22.37
2016-09-19T22:25:54.787Z,22.31
2016-09-19T22:26:20.384Z,22.31
2016-09-19T22:26:45.936Z,22.41
2016-09-19T22:27:44.096Z,22.34
2016-09-19T22:28:09.670Z,22.29
2016-09-19T22:28:35.244Z,22.23
2016-09-19T22:29:00.827Z,22.32
2016-09-19T22:29:26.390Z,22.38
2016-09-19T22:29:52.077Z,22.28
2016-09-19T22:30:17.725Z,22.29
2016-09-19T22:30:43.345Z,22.29
